34 min.
METAR EHQE 151655Z AUTO 35014KT 9999 NSC 06/02 Q1031

METAR uitleg | Integreren

METAR HOORN-A

Dit veld bevindt zich in Nederland.

Dit rapport is opgesteld voor HOORN-A op 15 april 2021 18:55, lokale tijd.

Vliegveldwaarnemingen

De wind staat vanuit de richting noord (350°) met een snelheid van 14 kt.

Het zicht is 10 km of meer.

Er is geen significante bewolking waargenomen. Er is geen wolkenbasis waargenomen.

De temperatuur is 6 °C, met een gevoelstemperatuur van 0 °C. Het dauwpunt is 2 °C, dus is de relatieve luchtvochtigheid 76%. De luchtdruk op zeeniveau is 1031 hPa (QNH).

Daglichtperiode

De zon komt vandaag op om 06:43 en gaat onder om 20:42. Dit geldt voor HOORN-A, de universele daglichtperiode kan anders zijn. Het verschil tussen de lokale tijd en UTC is +2 uur. Op dit moment is er sprake van zomertijd.

Historische gegevens

Doneren

Help je mee om Metar-Taf.com draaiend te houden?
Jouw bijdrage helpt om de site verder te ontwikkelen en om de kosten te betalen.

Nooit meer advertenties

Doneer je € 5 of meer? Dan laten we je nooit meer advertenties zien, als blijk van onze eeuwige dankbaarheid!
Log wel even in voordat je doneert

Wil je het vliegweer van HOORN-A op jouw website? Meer info   Gratis!